Météo Cheval Rigon

 

Relevés d'aujourd'hui



 

20/4/21
Time         Wind Dir   Wind Spd  Wind Gust   Humidity       Temp   Tot Rain Wind Chill  Dew Point   Barom SL Humidity R Temp Out R Tot Rain R   WindCh R   Dew Pt R SL Barom R Temp Out H Temp Out L  DailyRain   HourRain   24HrRain   RainRate  MonthRain
                          km/hr      km/hr          %         C         mm         C         C         mb       %/hr      C/hr      mm/hr      C/hr      C/hr      mm/hr         C         C         mm         mm         mm      mm/hr         mm
0:00              128          2          6         77        6.6     239.00        6.6        2.8    1017.58        0.9      -0.39      0.000      -0.35      -0.19     -0.088        6.6        6.6       0.00       0.00       0.00      0.000      27.20
0:15              126          2          5         78        6.3     239.00        6.3        2.8    1017.55        1.6      -0.49      0.000      -0.45      -0.16     -0.096        6.6        6.3       0.00       0.00       0.00      0.000      27.20
0:30              130          2          5         77        6.4     239.00        6.4        2.7    1017.55        0.4      -0.36      0.000      -0.33      -0.26     -0.080        6.6        6.3       0.00       0.00       0.00      0.000      27.20
0:45              129          2          3         79        5.8     239.00        5.8        2.5    1017.55        2.1      -0.76      0.000      -0.73      -0.35     -0.072        6.6        5.8       0.00       0.00       0.00      0.000      27.20
1:00              129          2          5         79        5.7     239.00        5.7        2.4    1017.48        1.6      -0.69      0.000      -0.67      -0.37     -0.110        6.6        5.7       0.00       0.00       0.00      0.000      27.20
1:15              123          0          3         80        5.9     239.00        5.9        2.7    1017.31        2.1      -0.37      0.000      -0.35       0.03     -0.232        6.6        5.7       0.00       0.00       0.00      0.000      27.20
1:30              109          3          5         78        6.8     239.00        6.8        3.2    1017.18       -0.2       0.50      0.000       0.52       0.46     -0.306        6.8        5.7       0.00       0.00       0.00      0.000      27.20
1:45              121          3          8         77        6.8     239.00        6.8        3.1    1017.14       -1.0       0.44      0.000       0.53       0.26     -0.271        6.8        5.7       0.00       0.00       0.00      0.000      27.20
2:00              113          2          8         77        6.8     239.00        6.8        3.1    1017.01       -0.7       0.34      0.000       0.46       0.20     -0.335        6.8        5.7       0.00       0.00       0.00      0.000      27.20
2:15              116          2          6         77        6.7     239.00        6.7        2.9    1016.94       -0.6       0.12      0.000       0.23       0.02     -0.326        6.8        5.7       0.00       0.00       0.00      0.000      27.20
2:30              120          2          3         78        6.5     239.00        6.5        2.9    1016.91        0.4      -0.05      0.000       0.03       0.02     -0.287        6.8        5.7       0.00       0.00       0.00      0.000      27.20
2:45               82          5          8         78        6.6     239.00        5.9        3.0    1016.81        0.3       0.01      0.000      -0.50       0.06     -0.328        6.8        5.7       0.00       0.00       0.00      0.000      27.20
3:00              120          3          8         78        6.6     239.00        6.6        3.0    1016.67        0.2       0.01      0.000       0.17       0.06     -0.379        6.8        5.7       0.00       0.00       0.00      0.000      27.20
3:15              132          5          8         79        6.4     239.00        5.7        3.0    1016.57        1.2      -0.15      0.000      -0.61       0.06     -0.390        6.8        5.7       0.00       0.00       0.00      0.000      27.20
3:30              105          3          6         79        6.3     239.00        6.3        2.9    1016.47        0.9      -0.23      0.000      -0.02      -0.06     -0.391        6.8        5.7       0.00       0.00       0.00      0.000      27.20
3:45              119          3          8         79        6.4     239.00        6.4        3.1    1016.33        0.6      -0.02      0.000       0.24       0.10     -0.421        6.8        5.7       0.00       0.00       0.00      0.000      27.20
4:00              116          3          6         79        6.3     239.00        6.3        3.0    1016.33        0.5      -0.11      0.000       0.15      -0.02     -0.328        6.8        5.7       0.00       0.00       0.00      0.000      27.20
4:15               88          8          8         79        6.3     239.00        4.7        3.0    1016.23        0.4      -0.09      0.000      -1.46      -0.01     -0.344        6.8        5.7       0.00       0.00       0.00      0.000      27.20
4:30              105          3          8         79        6.3     239.00        6.3        2.9    1016.20        0.3      -0.12      0.000       0.13      -0.06     -0.295        6.8        5.7       0.00       0.00       0.00      0.000      27.20
4:45              105          2          8         78        6.3     239.00        6.3        2.7    1016.06       -0.7      -0.10      0.000       0.11      -0.22     -0.350        6.8        5.7       0.00       0.00       0.00      0.000      27.20
5:00              118          3          8         78        6.3     239.00        6.3        2.8    1015.96       -0.5      -0.03      0.000       0.17      -0.12     -0.359        6.8        5.7       0.00       0.00       0.00      0.000      27.20
5:15              101          3          5         78        6.2     239.00        6.2        2.7    1015.96       -0.4      -0.12      0.000       0.05      -0.19     -0.272        6.8        5.7       0.00       0.00       0.00      0.000      27.20
5:30               90          2          5         78        5.9     239.00        5.9        2.4    1015.93       -0.3      -0.39      0.000      -0.24      -0.43     -0.236        6.8        5.7       0.00       0.00       0.00      0.000      27.20
5:45              100          0          5         79        5.6     239.00        5.6        2.2    1016.03        0.8      -0.60      0.000      -0.48      -0.45     -0.089        6.8        5.6       0.00       0.00       0.00      0.000      27.20
6:00              109          2          3         79        5.2     239.00        5.2        1.8    1015.96        0.6      -0.81      0.000      -0.72      -0.68     -0.129        6.8        5.2       0.00       0.00       0.00      0.000      27.20
6:15              162          0          5         80        5.6     239.00        5.6        2.4    1015.82        1.3      -0.23      0.000      -0.16       0.00     -0.227        6.8        5.2       0.00       0.00       0.00      0.000      27.20
6:30              162          0          5         78        5.6     239.00        5.6        2.0    1015.82       -0.8      -0.25      0.000      -0.19      -0.39     -0.186        6.8        5.2       0.00       0.00       0.00      0.000      27.20
6:45              162          0          0         80        4.8     239.00        4.8        1.7    1015.79        1.1      -0.82      0.000      -0.78      -0.60     -0.182        6.8        4.8       0.00       0.00       0.00      0.000      27.20
7:00              162          0          2         81        4.7     239.00        4.7        1.7    1015.79        1.8      -0.77      0.000      -0.73      -0.43     -0.145        6.8        4.6       0.00       0.00       0.00      0.000      27.20
7:15              162          0          3         81        4.8     239.00        4.8        1.9    1015.82        1.4      -0.46      0.000      -0.43      -0.20     -0.079        6.8        4.6       0.00       0.00       0.00      0.000      27.20
7:30              162          0          3         81        4.8     239.00        4.8        1.8    1015.96        1.1      -0.40      0.000      -0.37      -0.19      0.057        6.8        4.6       0.00       0.00       0.00      0.000      27.20
7:45              162          0          0         81        5.3     239.00        5.3        2.3    1015.99        0.7       0.14      0.000       0.16       0.25      0.080        6.8        4.6       0.00       0.00       0.00      0.000      27.20
8:00              162          0          3         80        5.8     239.00        5.8        2.6    1016.09       -0.4       0.53      0.000       0.55       0.45      0.157        6.8        4.6       0.00       0.00       0.00      0.000      27.20
8:15              162          0          0         80        6.3     239.00        6.3        3.1    1016.20       -0.3       0.91      0.000       0.93       0.84      0.211        6.8        4.6       0.00       0.00       0.00      0.000      27.20
8:30              162          0          0         79        7.2     239.00        7.2        3.8    1016.16       -1.1       1.46      0.000       1.47       1.23      0.133        7.2        4.6       0.00       0.00       0.00      0.000      27.20
8:45              162          0          0         78        7.9     239.00        7.9        4.3    1016.26       -1.7       1.83      0.000       1.84       1.47      0.194        7.9        4.6       0.00       0.00       0.00      0.000      27.20
9:00              162          0          0         75        8.8     239.00        8.8        4.6    1016.23       -4.0       2.22      0.000       2.23       1.41      0.122        8.8        4.6       0.00       0.00       0.00      0.000      27.20
9:15              162          0          0         72        9.5     239.00        9.5        4.7    1016.23       -5.7       2.29      0.000       2.30       1.14      0.086        9.5        4.6       0.00       0.00       0.00      0.000      27.20
9:30              162          0          3         70        9.8     239.00        9.8        4.6    1016.30       -6.2       2.04      0.000       2.04       0.78      0.127        9.8        4.6       0.00       0.00       0.00      0.000      27.20
9:45              162          0          3         70       10.3     239.00       10.3        5.1    1016.23       -5.0       2.03      0.000       2.03       1.01      0.034       10.3        4.6       0.00       0.00       0.00      0.000      27.20
10:00             162          0          5         69       10.8     239.00       10.8        5.3    1016.06       -4.6       2.03      0.000       2.03       1.07     -0.131       10.8        4.6       0.00       0.00       0.00      0.000      27.20
10:15             162          0          3         64       11.3     239.00       11.3        4.8    1015.93       -7.9       2.08      0.000       2.08       0.36     -0.221       11.3        4.6       0.00       0.00       0.00      0.000      27.20
10:30             347          5          5         66       12.0     239.00       12.0        5.9    1015.72       -4.0       2.21      0.000       2.21       1.31     -0.352       12.0        4.6       0.00       0.00       0.00      0.000      27.20
10:45             351          0          6         62       12.6     239.00       12.6        5.5    1015.72       -6.8       2.26      0.000       2.27       0.71     -0.274       12.6        4.6       0.00       0.00       0.00      0.000      27.20
11:00               5          5         10         63       12.9     239.00       12.9        6.1    1015.69       -4.5       2.05      0.000       2.07       1.01     -0.244       12.9        4.6       0.00       0.00       0.00      0.000      27.20
11:15               5          0         10         63       12.9     239.00       12.9        6.1    1015.72       -3.6       1.59      0.000       1.61       0.77     -0.155       13.0        4.6       0.00       0.00       0.00      0.000      27.20
11:30               5          3          6         61       12.9     239.00       12.9        5.6    1015.69       -4.8       1.24      0.000       1.25       0.12     -0.151       13.0        4.6       0.00       0.00       0.00      0.000      27.20
11:45               5          5          6         66       13.1     239.00       13.1        6.9    1015.65        0.4       1.05      0.000       1.06       1.12     -0.145       13.1        4.6       0.00       0.00       0.00      0.000      27.20
12:00               9          3          8         64       12.8     239.00       12.8        6.2    1015.59       -1.2       0.62      0.000       0.64       0.35     -0.180       13.1        4.6       0.00       0.00       0.00      0.000      27.20
12:15               9          0          8         61       13.2     239.00       13.2        5.9    1015.49       -3.9       0.83      0.000       0.85      -0.08     -0.234       13.2        4.6       0.00       0.00       0.00      0.000      27.20
12:30               5          2         10         60       13.8     239.00       13.8        6.2    1015.38       -4.3       1.17      0.000       1.20       0.13     -0.277       13.8        4.6       0.00       0.00       0.00      0.000      27.20
12:45               5          0         11         59       14.3     239.00       14.3        6.4    1015.32       -4.7       1.33      0.000       1.36       0.17     -0.273       14.3        4.6       0.00       0.00       0.00      0.000      27.20
13:00               5          0          6         63       14.7     239.00       14.7        7.8    1015.15        0.2       1.45      0.000       1.47       1.45     -0.361       14.7        4.6       0.00       0.00       0.00      0.000      27.20
13:15               5          2          2         57       14.9     239.00       14.9        6.5    1014.98       -4.9       1.26      0.000       1.27       0.01     -0.427       14.9        4.6       0.00       0.00       0.00      0.000      27.20
13:30              89          2          5         57       14.4     239.00       14.4        6.0    1014.98       -3.7       0.63      0.000       0.64      -0.29     -0.332       14.9        4.6       0.00       0.00       0.00      0.000      27.20
13:45              97          3          5         57       15.4     239.00       15.4        7.0    1014.81       -2.8       1.37      0.000       1.38       0.63     -0.401       15.4        4.6       0.00       0.00       0.00      0.000      27.20
14:00             124          5          8         52       14.8     239.00       14.8        5.0    1014.71       -5.9       0.48      0.000       0.48      -1.05     -0.403       15.5        4.6       0.00       0.00       0.00      0.000      27.20
14:15              85          0         10         57       14.3     239.00       14.3        5.9    1014.57        0.0       0.02      0.000       0.02       0.07     -0.436       15.5        4.6       0.00       0.00       0.00      0.000      27.20
14:30              51          0          5         60       15.2     239.00       15.2        7.5    1014.54        2.8       0.75      0.000       0.75       1.44     -0.368       15.5        4.6       0.00       0.00       0.00      0.000      27.20
14:45              17          0          5         53       15.0     239.00       15.0        5.5    1014.40       -3.9       0.43      0.000       0.43      -0.58     -0.413       15.5        4.6       0.00       0.00       0.00      0.000      27.20
15:00             155          2         11         51       14.6     239.00       14.6        4.6    1014.33       -5.2      -0.01      0.000      -0.00      -1.36     -0.381       15.5        4.6       0.00       0.00       0.00      0.000      27.20
15:15              78          0          8         51       15.8     239.00       15.8        5.7    1014.23       -4.7       1.04      0.000       1.05      -0.28     -0.381       15.8        4.6       0.00       0.00       0.00      0.000      27.20
15:30              91          2          5         51       16.1     239.00       16.1        5.9    1013.99       -4.2       1.02      0.000       1.02      -0.16     -0.494       16.3        4.6       0.00       0.00       0.00      0.000      27.20
15:45              96          2         13         51       16.3     239.00       16.3        6.2    1013.83       -3.6       1.07      0.000       1.07       0.04     -0.534       16.3        4.6       0.00       0.00       0.00      0.000      27.20
16:00             133          0          5         54       16.3     239.00       16.3        7.0    1013.66       -0.3       0.84      0.000       0.84       0.73     -0.564       16.4        4.6       0.00       0.00       0.00      0.000      27.20
16:15              15          0          6         56       16.4     239.00       16.4        7.6    1013.32        1.8       0.75      0.000       0.75       1.20     -0.728       16.4        4.6       0.00       0.00       0.00      0.000      27.20
16:30              80          0          6         47       16.8     239.00       16.8        5.4    1013.08       -6.4       0.82      0.000       0.82      -1.06     -0.774       17.2        4.6       0.00       0.00       0.00      0.000      27.20
16:45              25          6          8         51       15.3     239.00       15.3        5.2    1013.11       -1.3      -0.68      0.000      -0.68      -0.95     -0.570       17.2        4.6       0.00       0.00       0.00      0.000      27.20
17:00              10          0          6         52       14.9     239.00       14.9        5.1    1012.98       -0.2      -0.86      0.000      -0.86      -0.83     -0.563       17.2        4.6       0.00       0.00       0.00      0.000      27.20
17:15             129          3          3         56       15.5     239.00       15.5        6.8    1012.91        3.5      -0.11      0.000      -0.11       0.86     -0.490       17.2        4.6       0.00       0.00       0.00      0.000      27.20
17:30              84          0          5         51       15.9     239.00       15.9        5.8    1013.05       -1.5       0.23      0.000       0.24      -0.19     -0.258       17.2        4.6       0.00       0.00       0.00      0.000      27.20
17:45             200          0         10         49       14.7     239.00       14.7        4.1    1013.15       -3.5      -0.89      0.000      -0.89      -1.79     -0.123       17.2        4.6       0.00       0.00       0.00      0.000      27.20
18:00             140          8         18         56       12.9     239.00       12.4        4.3    1013.39        3.9      -2.31      0.000      -2.77      -1.11      0.120       17.2        4.6       0.00       0.00       0.00      0.000      27.20
18:15             182          0         21         56       12.1     239.00       12.1        3.6    1013.35        2.7      -2.45      0.000      -2.37      -1.55      0.058       17.2        4.6       0.00       0.00       0.00      0.000      27.20
18:30              98          2         10         70       11.4     239.20       11.4        6.1    1013.32       13.6      -2.58      0.198      -2.50       0.79      0.008       17.2        4.6       0.20       0.20       0.20      0.000      27.40
18:45              86          2          8         76       10.3     239.20       10.3        6.2    1013.18       15.7      -2.98      0.154      -2.92       0.68     -0.109       17.2        4.6       0.20       0.20       0.20      0.000      27.40
19:00              92          3         10         72       10.2     239.20       10.2        5.4    1013.35        8.6      -2.36      0.120      -2.28      -0.22      0.070       17.2        4.6       0.20       0.20       0.20      0.000      27.40
19:15             140          3         11         72       10.2     239.20       10.2        5.4    1013.52        6.8      -1.89      0.094      -1.79      -0.19      0.199       17.2        4.6       0.20       0.20       0.20      0.000      27.40
19:30             150          0          6         71       10.1     239.20       10.1        5.0    1013.96        4.5      -1.57      0.073      -1.48      -0.40      0.545       17.2        4.6       0.20       0.20       0.20      0.000      27.40
19:45             134          6         18         75        9.6     239.20        8.9        5.3    1013.93        7.1      -1.68      0.057      -2.24      -0.05      0.392       17.2        4.6       0.20       0.00       0.20      0.000      27.40
20:00             198          3         11         75        9.3     239.20        9.3        5.1    1014.27        5.4      -1.49      0.044      -1.29      -0.23      0.616       17.2        4.6       0.20       0.00       0.20      0.000      27.40
20:15             178          3         13         79        9.1     239.40        9.1        5.7    1014.54        7.7      -1.37      0.212      -1.14       0.26      0.719       17.2        4.6       0.40       0.20       0.40      0.000      27.60
20:30             131          5         13         81        8.6     239.60        8.2        5.5    1014.44        7.7      -1.58      0.360      -1.69       0.02      0.479       17.2        4.6       0.60       0.40       0.60      0.000      27.80
20:45             177          0         24         85        7.8     240.20        7.8        5.4    1014.64        9.7      -1.92      0.810      -1.58      -0.03      0.567       17.2        4.6       1.20       1.00       1.20      1.800      28.40
21:00             136          2         10         86        7.6     240.20        7.6        5.4    1014.84        8.4      -1.68      0.631      -1.38      -0.05      0.618       17.2        4.6       1.20       1.00       1.20      0.800      28.40
21:15              94          3         11         87        7.4     240.40        7.4        5.4    1014.77        7.6      -1.41      0.673      -1.08       0.03      0.421       17.2        4.6       1.40       1.20       1.40      0.000      28.60
21:30             140          5         10         87        7.6     240.60        7.1        5.6    1014.71        5.9      -0.94      0.694      -1.09       0.18      0.285       17.2        4.6       1.60       1.20       1.60      1.000      28.80
21:45              98          3         11         88        7.4     240.60        7.4        5.6    1014.84        5.5      -0.88      0.540      -0.54       0.14      0.338       17.2        4.6       1.60       1.00       1.60      0.000      28.80
22:00             112          3         11         87        7.6     240.60        7.6        5.5    1015.11        3.4      -0.58      0.420      -0.23       0.07      0.496       17.2        4.6       1.60       0.40       1.60      0.000      28.80

 


 

 

 

Retour accueil